createdAt,value
2022-10-02T00:02:18.616Z,99.90
2022-10-02T00:05:07.572Z,99.90
2022-10-02T00:08:03.245Z,99.90
2022-10-02T00:10:53.132Z,99.90
2022-10-02T00:13:32.729Z,99.90
2022-10-02T00:16:01.761Z,99.90
2022-10-02T00:18:35.794Z,99.90
2022-10-02T00:21:15.565Z,99.90
2022-10-02T00:23:45.113Z,99.90
2022-10-02T00:26:16.244Z,99.90
2022-10-02T00:29:04.560Z,99.90
2022-10-02T00:31:31.224Z,99.90
2022-10-02T00:34:32.504Z,99.90
2022-10-02T00:37:20.861Z,99.90
2022-10-02T00:40:21.683Z,99.90
2022-10-02T00:43:07.112Z,99.90
2022-10-02T00:46:02.011Z,99.90
2022-10-02T00:49:14.736Z,99.90
2022-10-02T00:51:52.334Z,99.90
2022-10-02T00:54:48.520Z,99.90
2022-10-02T00:57:54.325Z,99.90
2022-10-02T01:00:22.971Z,99.90
2022-10-02T01:03:11.560Z,99.90
2022-10-02T01:05:38.546Z,99.90
2022-10-02T01:08:06.161Z,99.90
2022-10-02T01:10:34.990Z,99.90
2022-10-02T01:13:01.669Z,99.90
2022-10-02T01:15:33.209Z,99.90
2022-10-02T01:18:02.111Z,99.90
2022-10-02T01:20:34.700Z,99.90
2022-10-02T01:23:30.069Z,99.90
2022-10-02T01:25:58.268Z,99.90
2022-10-02T01:28:25.568Z,99.90
2022-10-02T01:30:56.520Z,99.90
2022-10-02T01:33:23.746Z,99.90
2022-10-02T01:35:50.533Z,99.90
2022-10-02T01:38:19.763Z,99.90
2022-10-02T01:40:46.458Z,99.90
2022-10-02T01:43:21.601Z,99.90
2022-10-02T01:46:11.341Z,99.90
2022-10-02T01:49:16.814Z,99.90
2022-10-02T01:52:25.682Z,99.90
2022-10-02T01:54:58.713Z,99.90
2022-10-02T01:57:35.059Z,99.90
2022-10-02T02:00:25.046Z,99.90
2022-10-02T02:03:02.253Z,99.90
2022-10-02T02:05:51.005Z,99.90
2022-10-02T02:08:30.995Z,99.90
2022-10-02T02:11:16.204Z,99.90
2022-10-02T02:14:00.204Z,99.90
2022-10-02T02:16:45.532Z,99.90
2022-10-02T02:19:27.528Z,99.90
2022-10-02T02:22:23.589Z,99.90
2022-10-02T02:25:06.757Z,99.90
2022-10-02T02:27:39.487Z,99.90
2022-10-02T02:30:09.211Z,99.90
2022-10-02T02:32:39.469Z,99.90
2022-10-02T02:35:11.493Z,99.90
2022-10-02T02:37:42.029Z,99.90
2022-10-02T02:40:22.352Z,99.90
2022-10-02T02:43:04.877Z,99.90
2022-10-02T02:45:46.314Z,99.90
2022-10-02T02:48:22.779Z,99.90
2022-10-02T02:50:54.737Z,99.90
2022-10-02T02:53:27.048Z,99.90
2022-10-02T02:55:55.653Z,99.90
2022-10-02T02:58:28.507Z,99.90
2022-10-02T03:00:55.596Z,99.90
2022-10-02T03:03:22.479Z,99.90
2022-10-02T03:06:01.569Z,99.90
2022-10-02T03:08:31.788Z,99.90
2022-10-02T03:11:01.189Z,99.90
2022-10-02T03:13:36.562Z,99.90
2022-10-02T03:16:19.591Z,99.90
2022-10-02T03:19:18.428Z,99.90
2022-10-02T03:22:10.597Z,99.90
2022-10-02T03:25:10.573Z,99.90
2022-10-02T03:27:43.933Z,99.90
2022-10-02T03:30:12.885Z,99.90
2022-10-02T03:32:41.568Z,99.90
2022-10-02T03:35:14.363Z,99.90
2022-10-02T03:37:50.792Z,99.90
2022-10-02T03:40:17.617Z,99.90
2022-10-02T03:42:44.240Z,99.90
2022-10-02T03:45:19.522Z,99.90
2022-10-02T03:47:54.355Z,99.90
2022-10-02T03:50:21.573Z,99.90
2022-10-02T03:52:52.245Z,99.90
2022-10-02T03:55:18.924Z,99.90
2022-10-02T03:57:47.561Z,99.90
2022-10-02T04:00:22.865Z,99.90
2022-10-02T04:02:54.454Z,99.90
2022-10-02T04:05:25.147Z,99.90
2022-10-02T04:07:59.992Z,99.90
2022-10-02T04:10:44.850Z,99.90
2022-10-02T04:13:41.032Z,99.90
2022-10-02T04:16:31.307Z,99.90
2022-10-02T04:19:22.493Z,99.90
2022-10-02T04:21:54.517Z,99.90
2022-10-02T04:25:09.146Z,99.90
2022-10-02T04:27:40.278Z,99.90
2022-10-02T04:30:16.733Z,99.90
2022-10-02T04:32:43.456Z,99.90
2022-10-02T04:35:16.072Z,99.90
2022-10-02T04:38:08.841Z,99.90
2022-10-02T04:40:58.516Z,99.90
2022-10-02T04:43:52.911Z,99.90
2022-10-02T04:46:25.347Z,99.90
2022-10-02T04:49:10.749Z,99.90
2022-10-02T04:52:15.064Z,99.90
2022-10-02T04:55:08.327Z,99.90
2022-10-02T04:57:58.940Z,99.90
2022-10-02T05:00:31.251Z,99.90
2022-10-02T05:03:05.984Z,99.90
2022-10-02T05:06:15.467Z,99.90
2022-10-02T05:09:03.545Z,99.90
2022-10-02T05:11:56.026Z,99.90
2022-10-02T05:14:47.577Z,99.90
2022-10-02T05:17:32.622Z,99.90
2022-10-02T05:20:33.815Z,99.90
2022-10-02T05:23:12.513Z,99.90
2022-10-02T05:26:02.251Z,99.90
2022-10-02T05:29:11.200Z,99.90
2022-10-02T05:31:53.433Z,99.90
2022-10-02T05:34:42.160Z,99.90
2022-10-02T05:37:14.628Z,99.90
2022-10-02T05:39:52.193Z,99.90
2022-10-02T05:42:43.269Z,99.90
2022-10-02T05:45:39.304Z,99.90
2022-10-02T05:48:34.066Z,99.90
2022-10-02T05:51:25.920Z,99.90
2022-10-02T05:54:13.998Z,99.90
2022-10-02T05:56:47.579Z,99.90
2022-10-02T05:59:39.366Z,99.90
2022-10-02T06:02:20.395Z,99.90
2022-10-02T06:04:57.235Z,99.90
2022-10-02T06:07:25.620Z,99.90
2022-10-02T06:10:01.846Z,99.90
2022-10-02T06:12:38.454Z,99.90
2022-10-02T06:15:10.536Z,99.90
2022-10-02T06:17:42.769Z,99.90
2022-10-02T06:20:34.493Z,99.90
2022-10-02T06:23:13.500Z,99.90
2022-10-02T06:25:46.021Z,99.90
2022-10-02T06:28:28.142Z,99.90
2022-10-02T06:31:21.238Z,99.90
2022-10-02T06:33:48.213Z,99.90
2022-10-02T06:36:29.998Z,99.90
2022-10-02T06:39:14.611Z,99.90
2022-10-02T06:41:54.254Z,99.90
2022-10-02T06:44:36.072Z,99.90
2022-10-02T06:47:35.391Z,99.90
2022-10-02T06:50:35.314Z,99.90
2022-10-02T06:53:05.114Z,99.90
2022-10-02T06:55:41.171Z,99.90
2022-10-02T06:58:48.522Z,99.90
2022-10-02T07:01:24.493Z,99.90
2022-10-02T07:03:59.818Z,99.90
2022-10-02T07:06:45.843Z,99.90
2022-10-02T07:09:50.238Z,99.90
2022-10-02T07:12:37.648Z,99.90
2022-10-02T07:15:07.264Z,99.90
2022-10-02T07:18:01.784Z,99.90
2022-10-02T07:21:06.467Z,99.90
2022-10-02T07:23:42.173Z,99.90
2022-10-02T07:26:37.330Z,99.90
2022-10-02T07:29:10.028Z,99.90
2022-10-02T07:31:55.009Z,99.90
2022-10-02T07:34:31.414Z,99.90
2022-10-02T07:37:41.482Z,99.90
2022-10-02T07:40:48.198Z,99.90
2022-10-02T07:43:23.806Z,99.90
2022-10-02T07:46:52.808Z,99.90
2022-10-02T07:49:43.784Z,99.90
2022-10-02T07:52:37.157Z,99.90
2022-10-02T07:55:19.550Z,99.90
2022-10-02T07:58:14.086Z,99.90
2022-10-02T08:00:48.948Z,99.90
2022-10-02T08:03:21.656Z,99.90
2022-10-02T08:05:51.486Z,99.90
2022-10-02T08:08:29.225Z,99.90
2022-10-02T08:11:21.214Z,99.90
2022-10-02T08:13:56.858Z,99.90
2022-10-02T08:16:40.969Z,99.90
2022-10-02T08:19:15.994Z,99.90
2022-10-02T08:21:49.976Z,99.90
2022-10-02T08:24:23.411Z,99.90
2022-10-02T08:26:58.856Z,99.90
2022-10-02T08:29:42.596Z,99.90
2022-10-02T08:32:13.399Z,99.90
2022-10-02T08:34:41.376Z,99.90
2022-10-02T08:37:29.400Z,99.90
2022-10-02T08:40:33.543Z,99.90
2022-10-02T08:43:08.454Z,99.90
2022-10-02T08:46:19.463Z,99.90
2022-10-02T08:49:16.832Z,99.90
2022-10-02T08:51:52.701Z,99.90
2022-10-02T08:54:25.322Z,99.90
2022-10-02T08:57:12.564Z,99.90
2022-10-02T08:59:57.313Z,99.90
2022-10-02T09:02:49.098Z,99.90
2022-10-02T09:05:40.562Z,99.90
2022-10-02T09:08:45.011Z,99.90
2022-10-02T09:11:20.849Z,99.90
2022-10-02T09:14:12.624Z,99.90
2022-10-02T09:17:24.003Z,99.90
2022-10-02T09:20:27.782Z,99.90
2022-10-02T09:23:16.155Z,99.90
2022-10-02T09:26:19.778Z,99.90
2022-10-02T09:29:13.948Z,99.90
2022-10-02T09:32:04.764Z,99.90
2022-10-02T09:35:18.806Z,99.90
2022-10-02T09:38:07.013Z,99.90
2022-10-02T09:40:55.235Z,99.90
2022-10-02T09:43:48.913Z,99.90
2022-10-02T09:46:22.283Z,99.90
2022-10-02T09:49:08.875Z,99.90
2022-10-02T09:51:54.110Z,99.90
2022-10-02T09:54:32.089Z,99.90
2022-10-02T09:57:06.790Z,99.90
2022-10-02T09:59:36.193Z,99.90
2022-10-02T10:02:33.412Z,99.90
2022-10-02T10:05:39.245Z,99.90
2022-10-02T10:08:16.486Z,99.90
2022-10-02T10:11:11.131Z,99.90
2022-10-02T10:13:56.753Z,99.90
2022-10-02T10:16:57.537Z,99.90
2022-10-02T10:19:45.376Z,99.90
2022-10-02T10:22:18.982Z,99.90
2022-10-02T10:25:12.974Z,99.90
2022-10-02T10:28:17.833Z,99.90
2022-10-02T10:30:53.374Z,99.90
2022-10-02T10:33:26.097Z,99.90
2022-10-02T10:36:42.103Z,99.90
2022-10-02T10:39:11.125Z,99.90
2022-10-02T10:42:01.251Z,99.90
2022-10-02T10:44:46.875Z,99.90
2022-10-02T10:47:49.425Z,99.90
2022-10-02T10:50:54.971Z,99.90
2022-10-02T10:53:56.200Z,99.90
2022-10-02T10:56:52.089Z,99.90
2022-10-02T10:59:43.650Z,99.90
2022-10-02T11:02:31.406Z,99.90
2022-10-02T11:05:40.591Z,99.90
2022-10-02T11:08:22.542Z,99.90
2022-10-02T11:11:01.318Z,99.90
2022-10-02T11:13:43.834Z,99.90
2022-10-02T11:16:22.191Z,99.90
2022-10-02T11:19:26.517Z,99.90
2022-10-02T11:22:20.595Z,99.90
2022-10-02T11:25:12.513Z,99.90
2022-10-02T11:28:01.431Z,99.90
2022-10-02T11:31:25.763Z,99.90
2022-10-02T11:34:33.468Z,99.90
2022-10-02T11:37:31.531Z,99.90
2022-10-02T11:40:17.450Z,99.90
2022-10-02T11:43:40.586Z,99.90
2022-10-02T11:46:36.433Z,99.90
2022-10-02T11:49:20.447Z,99.90
2022-10-02T11:52:24.692Z,99.90
2022-10-02T11:55:09.894Z,99.90
2022-10-02T11:58:00.439Z,99.90
2022-10-02T12:00:58.704Z,99.90
2022-10-02T12:03:40.135Z,99.90
2022-10-02T12:06:28.638Z,99.90
2022-10-02T12:08:58.313Z,99.90
2022-10-02T12:11:43.081Z,99.90
2022-10-02T12:14:29.946Z,99.90
2022-10-02T12:17:01.492Z,99.90
2022-10-02T12:20:11.367Z,99.90
2022-10-02T12:23:19.492Z,99.90
2022-10-02T12:26:25.204Z,99.90
2022-10-02T12:29:24.057Z,99.90
2022-10-02T12:32:10.065Z,99.90
2022-10-02T12:35:19.274Z,99.90
2022-10-02T12:37:49.001Z,99.90
2022-10-02T12:40:38.732Z,99.90
2022-10-02T12:43:26.849Z,99.90
2022-10-02T12:45:59.537Z,99.90
2022-10-02T12:48:58.529Z,99.90
2022-10-02T12:51:32.212Z,99.90
2022-10-02T12:54:20.532Z,99.90
2022-10-02T12:57:39.801Z,99.90
2022-10-02T13:00:16.268Z,99.90
2022-10-02T13:03:05.496Z,99.90
2022-10-02T13:05:32.220Z,99.90
2022-10-02T13:08:18.188Z,99.90
2022-10-02T13:10:57.325Z,99.90
2022-10-02T13:13:31.409Z,99.90
2022-10-02T13:16:09.621Z,99.90
2022-10-02T13:18:48.432Z,99.90
2022-10-02T13:21:18.805Z,99.90
2022-10-02T13:23:48.391Z,99.90
2022-10-02T13:26:33.146Z,99.90
2022-10-02T13:29:14.878Z,99.90
2022-10-02T13:32:02.807Z,99.90
2022-10-02T13:34:41.138Z,99.90
2022-10-02T13:37:42.234Z,99.90
2022-10-02T13:40:32.978Z,99.70
2022-10-02T13:43:31.453Z,99.90
2022-10-02T13:46:17.161Z,99.90
2022-10-02T13:48:55.113Z,95.50
2022-10-02T13:51:43.125Z,96.60
2022-10-02T13:54:23.025Z,92.60
2022-10-02T13:56:55.434Z,90.70
2022-10-02T13:59:49.298Z,87.50
2022-10-02T14:02:32.679Z,85.10
2022-10-02T14:05:05.307Z,90.50
2022-10-02T14:07:54.943Z,87.40
2022-10-02T14:11:09.006Z,80.10
2022-10-02T14:14:19.015Z,84.30
2022-10-02T14:17:10.124Z,80.20
2022-10-02T14:20:19.025Z,75.00
2022-10-02T14:23:13.756Z,75.90
2022-10-02T14:26:02.258Z,67.50
2022-10-02T14:28:50.718Z,71.50
2022-10-02T14:31:39.990Z,76.30
2022-10-02T14:34:31.960Z,81.90
2022-10-02T14:37:21.456Z,87.00
2022-10-02T14:39:49.470Z,92.20
2022-10-02T14:42:34.202Z,95.80
2022-10-02T14:45:42.026Z,99.90
2022-10-02T14:48:20.888Z,99.90
2022-10-02T14:50:59.288Z,99.90
2022-10-02T14:53:40.427Z,99.90
2022-10-02T14:56:43.209Z,99.90
2022-10-02T14:59:19.394Z,99.90
2022-10-02T15:02:11.001Z,99.90
2022-10-02T15:05:04.394Z,99.90
2022-10-02T15:07:34.629Z,99.90
2022-10-02T15:10:22.041Z,99.90
2022-10-02T15:13:02.422Z,99.90
2022-10-02T15:15:37.789Z,99.90
2022-10-02T15:18:20.938Z,99.90
2022-10-02T15:20:59.451Z,99.90
2022-10-02T15:23:41.297Z,99.90
2022-10-02T15:26:26.569Z,99.90
2022-10-02T15:29:10.111Z,99.90
2022-10-02T15:32:20.205Z,99.90
2022-10-02T15:34:55.714Z,99.90
2022-10-02T15:37:35.241Z,99.90
2022-10-02T15:40:16.819Z,99.90
2022-10-02T15:42:58.617Z,99.90
2022-10-02T15:45:52.845Z,99.90
2022-10-02T15:48:38.662Z,99.90
2022-10-02T15:51:26.557Z,99.90
2022-10-02T15:54:11.349Z,97.50
2022-10-02T15:57:08.688Z,96.00
2022-10-02T15:59:54.877Z,95.30
2022-10-02T16:02:48.319Z,93.00
2022-10-02T16:05:29.266Z,93.50
2022-10-02T16:08:26.385Z,92.80
2022-10-02T16:11:19.292Z,91.10
2022-10-02T16:14:05.957Z,91.40
2022-10-02T16:16:42.019Z,91.50
2022-10-02T16:19:30.427Z,92.40
2022-10-02T16:22:30.228Z,90.70
2022-10-02T16:25:28.419Z,92.90
2022-10-02T16:28:31.650Z,92.40
2022-10-02T16:31:18.667Z,93.40
2022-10-02T16:34:00.112Z,93.90
2022-10-02T16:36:34.169Z,94.30
2022-10-02T16:39:13.139Z,95.70
2022-10-02T16:42:00.583Z,97.50
2022-10-02T16:44:43.483Z,99.90
2022-10-02T16:47:29.067Z,99.90
2022-10-02T16:50:14.689Z,99.90
2022-10-02T16:53:24.429Z,99.90
2022-10-02T16:55:58.531Z,99.90
2022-10-02T16:58:44.252Z,99.90
2022-10-02T17:02:13.269Z,99.90
2022-10-02T17:05:11.854Z,99.90
2022-10-02T17:07:54.590Z,99.90
2022-10-02T17:10:53.168Z,99.90
2022-10-02T17:13:44.765Z,99.90
2022-10-02T17:16:21.525Z,99.90
2022-10-02T17:19:03.854Z,99.90
2022-10-02T17:21:48.133Z,99.90
2022-10-02T17:24:38.870Z,99.90
2022-10-02T17:27:42.631Z,99.90
2022-10-02T17:30:27.154Z,99.90
2022-10-02T17:33:07.008Z,99.90
2022-10-02T17:35:56.197Z,99.90
2022-10-02T17:38:25.557Z,99.90
2022-10-02T17:40:58.213Z,99.90
2022-10-02T17:43:35.144Z,99.90
2022-10-02T17:46:20.111Z,99.90
2022-10-02T17:48:55.614Z,99.90
2022-10-02T17:51:51.201Z,99.90
2022-10-02T17:54:57.328Z,99.90
2022-10-02T17:57:38.123Z,99.90
2022-10-02T18:00:17.587Z,99.90
2022-10-02T18:03:22.519Z,99.90
2022-10-02T18:06:10.484Z,99.90
2022-10-02T18:09:19.198Z,99.90
2022-10-02T18:12:23.921Z,99.90
2022-10-02T18:15:21.053Z,99.90
2022-10-02T18:18:15.538Z,99.90
2022-10-02T18:21:07.717Z,99.90
2022-10-02T18:23:50.285Z,99.90
2022-10-02T18:26:22.669Z,99.90
2022-10-02T18:29:14.984Z,99.90
2022-10-02T18:32:19.335Z,99.90
2022-10-02T18:35:13.145Z,99.90
2022-10-02T18:38:01.887Z,99.90
2022-10-02T18:40:35.078Z,99.90
2022-10-02T18:43:07.981Z,99.90
2022-10-02T18:45:37.359Z,99.90
2022-10-02T18:48:31.965Z,99.90
2022-10-02T18:51:08.742Z,99.90
2022-10-02T18:53:59.505Z,99.90
2022-10-02T18:57:07.207Z,99.90
2022-10-02T18:59:45.010Z,99.90
2022-10-02T19:02:45.314Z,99.90
2022-10-02T19:05:22.564Z,99.90
2022-10-02T19:08:04.496Z,99.90
2022-10-02T19:10:31.115Z,99.90
2022-10-02T19:13:17.610Z,99.90
2022-10-02T19:15:46.810Z,99.90
2022-10-02T19:18:26.881Z,99.90
2022-10-02T19:21:03.129Z,99.90
2022-10-02T19:23:39.002Z,99.90
2022-10-02T19:26:30.361Z,99.90
2022-10-02T19:29:19.352Z,99.90
2022-10-02T19:31:46.768Z,99.90
2022-10-02T19:34:24.519Z,99.90
2022-10-02T19:36:54.525Z,99.90
2022-10-02T19:39:30.367Z,99.90
2022-10-02T19:42:15.464Z,99.90
2022-10-02T19:44:49.319Z,99.90
2022-10-02T19:47:33.913Z,99.90
2022-10-02T19:50:02.318Z,99.90
2022-10-02T19:52:43.546Z,99.90
2022-10-02T19:55:27.241Z,99.90
2022-10-02T19:57:59.699Z,99.90
2022-10-02T20:00:28.147Z,99.90
2022-10-02T20:02:58.673Z,99.90
2022-10-02T20:05:29.227Z,99.90
2022-10-02T20:08:04.295Z,99.90
2022-10-02T20:10:41.078Z,99.90
2022-10-02T20:13:23.748Z,99.90
2022-10-02T20:16:16.643Z,99.90
2022-10-02T20:18:43.521Z,99.90
2022-10-02T20:21:35.910Z,99.90
2022-10-02T20:24:07.085Z,99.90
2022-10-02T20:26:39.794Z,99.90
2022-10-02T20:29:17.143Z,99.90
2022-10-02T20:32:02.112Z,99.90
2022-10-02T20:35:01.654Z,99.90
2022-10-02T20:37:34.813Z,99.90
2022-10-02T20:40:18.000Z,99.90
2022-10-02T20:43:32.824Z,99.90
2022-10-02T20:46:20.839Z,99.90
2022-10-02T20:49:17.654Z,99.90
2022-10-02T20:52:23.117Z,99.90
2022-10-02T20:55:14.790Z,99.90
2022-10-02T20:58:04.008Z,99.90
2022-10-02T21:00:49.778Z,99.90
2022-10-02T21:03:26.489Z,99.90
2022-10-02T21:06:20.869Z,99.90
2022-10-02T21:09:25.229Z,99.90
2022-10-02T21:12:04.048Z,99.90
2022-10-02T21:14:58.531Z,99.90
2022-10-02T21:17:31.306Z,99.90
2022-10-02T21:20:50.342Z,99.90
2022-10-02T21:23:47.616Z,99.90
2022-10-02T21:26:43.477Z,99.90
2022-10-02T21:29:29.245Z,99.90
2022-10-02T21:32:22.622Z,99.90
2022-10-02T21:34:55.305Z,99.90
2022-10-02T21:37:34.586Z,99.90
2022-10-02T21:40:32.482Z,99.90
2022-10-02T21:43:29.720Z,99.90
2022-10-02T21:46:14.251Z,99.90
2022-10-02T21:49:18.997Z,99.90
2022-10-02T21:52:04.642Z,99.90
2022-10-02T21:55:08.798Z,99.90
2022-10-02T21:57:50.362Z,99.90
2022-10-02T22:00:21.858Z,99.90
2022-10-02T22:03:20.462Z,99.90
2022-10-02T22:06:11.026Z,99.90
2022-10-02T22:08:54.941Z,99.90
2022-10-02T22:11:46.662Z,99.90
2022-10-02T22:14:20.948Z,99.90
2022-10-02T22:17:04.580Z,99.90
2022-10-02T22:19:47.929Z,99.90
2022-10-02T22:22:25.005Z,99.90
2022-10-02T22:25:09.681Z,99.90
2022-10-02T22:28:00.484Z,99.90
2022-10-02T22:30:30.961Z,99.90
2022-10-02T22:33:19.326Z,99.90
2022-10-02T22:36:06.326Z,99.90
2022-10-02T22:38:46.207Z,99.90
2022-10-02T22:41:16.133Z,99.90
2022-10-02T22:43:55.565Z,99.90
2022-10-02T22:46:44.334Z,99.90
2022-10-02T22:49:18.056Z,99.90
2022-10-02T22:52:00.375Z,99.90
2022-10-02T22:54:39.204Z,99.90
2022-10-02T22:57:20.178Z,99.90
2022-10-02T22:59:51.945Z,99.90
2022-10-02T23:02:31.387Z,99.90
2022-10-02T23:05:22.576Z,99.90
2022-10-02T23:08:15.272Z,99.90
2022-10-02T23:10:51.846Z,99.90
2022-10-02T23:13:42.012Z,99.90
2022-10-02T23:16:15.247Z,99.90
2022-10-02T23:19:00.830Z,99.90
2022-10-02T23:21:45.706Z,99.90
2022-10-02T23:24:12.872Z,99.90
2022-10-02T23:26:57.472Z,99.90
2022-10-02T23:29:46.198Z,99.90
2022-10-02T23:32:41.060Z,99.90
2022-10-02T23:35:35.837Z,99.90
2022-10-02T23:38:23.258Z,99.90
2022-10-02T23:41:14.137Z,99.90
2022-10-02T23:44:21.209Z,99.90
2022-10-02T23:46:50.616Z,99.90
2022-10-02T23:49:23.962Z,99.90
2022-10-02T23:52:11.902Z,99.90
2022-10-02T23:54:48.682Z,99.90
2022-10-02T23:57:24.280Z,99.90
